sensor_id;sensor_type;location;lat;lon;timestamp;P1;durP1;ratioP1;P2;durP2;ratioP2
5303;SDS011;2674;49.722;10.892;2024-03-22T00:00:15;12.23;;;6.87;;
5303;SDS011;2674;49.722;10.892;2024-03-22T00:02:41;7.80;;;6.00;;
5303;SDS011;2674;49.722;10.892;2024-03-22T00:05:07;12.50;;;7.00;;
5303;SDS011;2674;49.722;10.892;2024-03-22T00:07:33;9.87;;;6.63;;
5303;SDS011;2674;49.722;10.892;2024-03-22T00:09:58;7.23;;;6.03;;
5303;SDS011;2674;49.722;10.892;2024-03-22T00:12:25;10.17;;;7.00;;
5303;SDS011;2674;49.722;10.892;2024-03-22T00:14:51;11.43;;;7.77;;
5303;SDS011;2674;49.722;10.892;2024-03-22T00:17:19;8.03;;;6.17;;
5303;SDS011;2674;49.722;10.892;2024-03-22T00:19:45;16.20;;;10.40;;
5303;SDS011;2674;49.722;10.892;2024-03-22T00:22:11;12.90;;;6.87;;
5303;SDS011;2674;49.722;10.892;2024-03-22T00:24:37;11.13;;;7.17;;
5303;SDS011;2674;49.722;10.892;2024-03-22T00:27:03;15.43;;;7.10;;
5303;SDS011;2674;49.722;10.892;2024-03-22T00:29:29;11.47;;;7.40;;
5303;SDS011;2674;49.722;10.892;2024-03-22T00:31:54;9.90;;;7.47;;
5303;SDS011;2674;49.722;10.892;2024-03-22T00:34:20;12.90;;;7.00;;
5303;SDS011;2674;49.722;10.892;2024-03-22T00:36:46;14.33;;;8.00;;
5303;SDS011;2674;49.722;10.892;2024-03-22T00:39:12;12.97;;;7.43;;
5303;SDS011;2674;49.722;10.892;2024-03-22T00:41:38;11.33;;;7.03;;
5303;SDS011;2674;49.722;10.892;2024-03-22T00:44:04;8.90;;;7.10;;
5303;SDS011;2674;49.722;10.892;2024-03-22T00:46:29;11.30;;;7.30;;
5303;SDS011;2674;49.722;10.892;2024-03-22T00:48:56;13.30;;;7.47;;
5303;SDS011;2674;49.722;10.892;2024-03-22T00:51:25;8.17;;;6.70;;
5303;SDS011;2674;49.722;10.892;2024-03-22T00:53:51;11.37;;;7.93;;
5303;SDS011;2674;49.722;10.892;2024-03-22T00:56:17;9.43;;;7.33;;
5303;SDS011;2674;49.722;10.892;2024-03-22T00:58:43;12.47;;;8.10;;
5303;SDS011;2674;49.722;10.892;2024-03-22T01:01:09;14.07;;;7.20;;
5303;SDS011;2674;49.722;10.892;2024-03-22T01:03:34;20.30;;;8.30;;
5303;SDS011;2674;49.722;10.892;2024-03-22T01:06:01;9.57;;;6.97;;
5303;SDS011;2674;49.722;10.892;2024-03-22T01:08:27;11.07;;;7.40;;
5303;SDS011;2674;49.722;10.892;2024-03-22T01:10:53;9.80;;;7.70;;
5303;SDS011;2674;49.722;10.892;2024-03-22T01:13:19;14.13;;;7.70;;
5303;SDS011;2674;49.722;10.892;2024-03-22T01:15:44;12.10;;;8.00;;
5303;SDS011;2674;49.722;10.892;2024-03-22T01:18:11;9.70;;;6.97;;
5303;SDS011;2674;49.722;10.892;2024-03-22T01:20:37;10.43;;;8.17;;
5303;SDS011;2674;49.722;10.892;2024-03-22T01:23:03;12.27;;;7.43;;
5303;SDS011;2674;49.722;10.892;2024-03-22T01:25:29;11.00;;;7.33;;
5303;SDS011;2674;49.722;10.892;2024-03-22T01:27:56;10.63;;;7.30;;
5303;SDS011;2674;49.722;10.892;2024-03-22T01:30:22;13.73;;;8.00;;
5303;SDS011;2674;49.722;10.892;2024-03-22T01:32:48;14.80;;;8.40;;
5303;SDS011;2674;49.722;10.892;2024-03-22T01:35:13;11.60;;;7.93;;
5303;SDS011;2674;49.722;10.892;2024-03-22T01:37:39;10.00;;;7.73;;
5303;SDS011;2674;49.722;10.892;2024-03-22T01:40:06;13.13;;;7.17;;
5303;SDS011;2674;49.722;10.892;2024-03-22T01:42:33;12.10;;;7.47;;
5303;SDS011;2674;49.722;10.892;2024-03-22T01:44:58;11.53;;;8.00;;
5303;SDS011;2674;49.722;10.892;2024-03-22T01:47:24;11.60;;;7.20;;
5303;SDS011;2674;49.722;10.892;2024-03-22T01:49:50;12.13;;;7.27;;
5303;SDS011;2674;49.722;10.892;2024-03-22T01:52:21;12.67;;;7.13;;
5303;SDS011;2674;49.722;10.892;2024-03-22T01:54:47;11.33;;;6.60;;
5303;SDS011;2674;49.722;10.892;2024-03-22T01:57:13;13.63;;;8.10;;
5303;SDS011;2674;49.722;10.892;2024-03-22T01:59:39;13.20;;;7.80;;
5303;SDS011;2674;49.722;10.892;2024-03-22T02:02:05;13.40;;;8.77;;
5303;SDS011;2674;49.722;10.892;2024-03-22T02:04:35;15.13;;;7.43;;
5303;SDS011;2674;49.722;10.892;2024-03-22T02:07:01;12.73;;;8.57;;
5303;SDS011;2674;49.722;10.892;2024-03-22T02:09:26;14.83;;;8.30;;
5303;SDS011;2674;49.722;10.892;2024-03-22T02:11:52;11.27;;;7.73;;
5303;SDS011;2674;49.722;10.892;2024-03-22T02:14:18;13.50;;;8.67;;
5303;SDS011;2674;49.722;10.892;2024-03-22T02:16:44;13.53;;;8.83;;
5303;SDS011;2674;49.722;10.892;2024-03-22T02:19:10;19.07;;;9.30;;
5303;SDS011;2674;49.722;10.892;2024-03-22T02:21:36;11.90;;;8.30;;
5303;SDS011;2674;49.722;10.892;2024-03-22T02:24:02;12.70;;;8.00;;
5303;SDS011;2674;49.722;10.892;2024-03-22T02:26:28;13.30;;;8.40;;
5303;SDS011;2674;49.722;10.892;2024-03-22T02:28:54;14.30;;;8.40;;
5303;SDS011;2674;49.722;10.892;2024-03-22T02:31:19;15.57;;;8.03;;
5303;SDS011;2674;49.722;10.892;2024-03-22T02:33:45;11.13;;;8.03;;
5303;SDS011;2674;49.722;10.892;2024-03-22T02:36:11;14.60;;;7.97;;
5303;SDS011;2674;49.722;10.892;2024-03-22T02:38:37;11.40;;;8.40;;
5303;SDS011;2674;49.722;10.892;2024-03-22T02:41:03;14.27;;;9.30;;
5303;SDS011;2674;49.722;10.892;2024-03-22T02:43:29;9.67;;;7.30;;
5303;SDS011;2674;49.722;10.892;2024-03-22T02:45:54;9.37;;;6.00;;
5303;SDS011;2674;49.722;10.892;2024-03-22T02:48:20;7.40;;;6.33;;
5303;SDS011;2674;49.722;10.892;2024-03-22T02:50:46;10.37;;;6.57;;
5303;SDS011;2674;49.722;10.892;2024-03-22T02:53:12;8.67;;;7.00;;
5303;SDS011;2674;49.722;10.892;2024-03-22T02:55:41;8.23;;;5.67;;
5303;SDS011;2674;49.722;10.892;2024-03-22T02:58:07;7.43;;;6.00;;
5303;SDS011;2674;49.722;10.892;2024-03-22T03:00:37;6.83;;;5.20;;
5303;SDS011;2674;49.722;10.892;2024-03-22T03:03:06;11.57;;;7.27;;
5303;SDS011;2674;49.722;10.892;2024-03-22T03:05:32;9.73;;;6.63;;
5303;SDS011;2674;49.722;10.892;2024-03-22T03:07:58;7.40;;;6.00;;
5303;SDS011;2674;49.722;10.892;2024-03-22T03:10:24;8.10;;;6.03;;
5303;SDS011;2674;49.722;10.892;2024-03-22T03:12:50;9.80;;;6.03;;
5303;SDS011;2674;49.722;10.892;2024-03-22T03:15:15;10.23;;;6.77;;
5303;SDS011;2674;49.722;10.892;2024-03-22T03:17:43;10.50;;;7.37;;
5303;SDS011;2674;49.722;10.892;2024-03-22T03:20:12;14.80;;;7.40;;
5303;SDS011;2674;49.722;10.892;2024-03-22T03:22:39;9.87;;;6.50;;
5303;SDS011;2674;49.722;10.892;2024-03-22T03:25:05;11.53;;;6.93;;
5303;SDS011;2674;49.722;10.892;2024-03-22T03:27:32;10.03;;;7.37;;
5303;SDS011;2674;49.722;10.892;2024-03-22T03:29:57;12.00;;;7.50;;
5303;SDS011;2674;49.722;10.892;2024-03-22T03:32:23;9.87;;;6.40;;
5303;SDS011;2674;49.722;10.892;2024-03-22T03:34:50;12.00;;;7.97;;
5303;SDS011;2674;49.722;10.892;2024-03-22T03:37:16;11.20;;;6.17;;
5303;SDS011;2674;49.722;10.892;2024-03-22T03:39:42;9.50;;;6.80;;
5303;SDS011;2674;49.722;10.892;2024-03-22T03:42:07;10.17;;;7.23;;
5303;SDS011;2674;49.722;10.892;2024-03-22T03:44:34;8.17;;;6.33;;
5303;SDS011;2674;49.722;10.892;2024-03-22T03:47:01;9.63;;;6.87;;
5303;SDS011;2674;49.722;10.892;2024-03-22T03:49:27;11.80;;;7.77;;
5303;SDS011;2674;49.722;10.892;2024-03-22T03:51:53;12.07;;;7.83;;
5303;SDS011;2674;49.722;10.892;2024-03-22T03:54:19;10.83;;;7.27;;
5303;SDS011;2674;49.722;10.892;2024-03-22T03:56:44;9.20;;;6.33;;
5303;SDS011;2674;49.722;10.892;2024-03-22T03:59:10;6.97;;;5.63;;
5303;SDS011;2674;49.722;10.892;2024-03-22T04:01:36;13.40;;;6.00;;
5303;SDS011;2674;49.722;10.892;2024-03-22T04:04:03;8.63;;;5.50;;
5303;SDS011;2674;49.722;10.892;2024-03-22T04:06:29;9.03;;;6.87;;
5303;SDS011;2674;49.722;10.892;2024-03-22T04:08:55;8.10;;;6.10;;
5303;SDS011;2674;49.722;10.892;2024-03-22T04:11:22;8.97;;;5.53;;
5303;SDS011;2674;49.722;10.892;2024-03-22T04:13:48;6.90;;;6.10;;
5303;SDS011;2674;49.722;10.892;2024-03-22T04:16:14;10.07;;;5.83;;
5303;SDS011;2674;49.722;10.892;2024-03-22T04:18:40;8.50;;;5.70;;
5303;SDS011;2674;49.722;10.892;2024-03-22T04:21:06;8.07;;;6.20;;
5303;SDS011;2674;49.722;10.892;2024-03-22T04:23:32;11.23;;;7.03;;
5303;SDS011;2674;49.722;10.892;2024-03-22T04:25:58;8.33;;;6.43;;
5303;SDS011;2674;49.722;10.892;2024-03-22T04:28:25;10.03;;;6.43;;
5303;SDS011;2674;49.722;10.892;2024-03-22T04:31:01;12.83;;;7.70;;
5303;SDS011;2674;49.722;10.892;2024-03-22T04:33:28;13.27;;;7.33;;
5303;SDS011;2674;49.722;10.892;2024-03-22T04:35:55;9.00;;;6.20;;
5303;SDS011;2674;49.722;10.892;2024-03-22T04:38:22;9.23;;;6.30;;
5303;SDS011;2674;49.722;10.892;2024-03-22T04:40:49;11.50;;;7.03;;
5303;SDS011;2674;49.722;10.892;2024-03-22T04:43:15;16.03;;;8.10;;
5303;SDS011;2674;49.722;10.892;2024-03-22T04:45:42;10.87;;;7.67;;
5303;SDS011;2674;49.722;10.892;2024-03-22T04:48:08;8.80;;;7.30;;
5303;SDS011;2674;49.722;10.892;2024-03-22T04:50:34;14.37;;;7.90;;
5303;SDS011;2674;49.722;10.892;2024-03-22T04:53:00;16.53;;;8.03;;
5303;SDS011;2674;49.722;10.892;2024-03-22T04:55:26;11.57;;;7.37;;
5303;SDS011;2674;49.722;10.892;2024-03-22T04:57:52;12.20;;;7.70;;
5303;SDS011;2674;49.722;10.892;2024-03-22T05:00:18;11.23;;;7.73;;
5303;SDS011;2674;49.722;10.892;2024-03-22T05:02:44;16.93;;;7.47;;
5303;SDS011;2674;49.722;10.892;2024-03-22T05:05:11;13.00;;;7.97;;
5303;SDS011;2674;49.722;10.892;2024-03-22T05:07:37;14.43;;;8.30;;
5303;SDS011;2674;49.722;10.892;2024-03-22T05:10:03;10.53;;;7.00;;
5303;SDS011;2674;49.722;10.892;2024-03-22T05:12:30;14.10;;;7.97;;
5303;SDS011;2674;49.722;10.892;2024-03-22T05:14:56;11.77;;;7.67;;
5303;SDS011;2674;49.722;10.892;2024-03-22T05:17:22;12.60;;;7.50;;
5303;SDS011;2674;49.722;10.892;2024-03-22T05:19:47;10.43;;;6.87;;
5303;SDS011;2674;49.722;10.892;2024-03-22T05:22:13;12.37;;;7.67;;
5303;SDS011;2674;49.722;10.892;2024-03-22T05:24:39;7.00;;;6.30;;
5303;SDS011;2674;49.722;10.892;2024-03-22T05:27:05;9.53;;;6.80;;
5303;SDS011;2674;49.722;10.892;2024-03-22T05:29:31;11.80;;;8.07;;
5303;SDS011;2674;49.722;10.892;2024-03-22T05:31:57;8.73;;;6.93;;
5303;SDS011;2674;49.722;10.892;2024-03-22T05:34:22;11.93;;;7.50;;
5303;SDS011;2674;49.722;10.892;2024-03-22T05:36:48;15.73;;;10.53;;
5303;SDS011;2674;49.722;10.892;2024-03-22T05:39:14;33.03;;;10.57;;
5303;SDS011;2674;49.722;10.892;2024-03-22T05:41:40;14.33;;;9.20;;
5303;SDS011;2674;49.722;10.892;2024-03-22T05:44:06;17.17;;;10.13;;
5303;SDS011;2674;49.722;10.892;2024-03-22T05:46:32;18.03;;;9.23;;
5303;SDS011;2674;49.722;10.892;2024-03-22T05:49:00;17.13;;;8.80;;
5303;SDS011;2674;49.722;10.892;2024-03-22T05:51:26;12.80;;;8.10;;
5303;SDS011;2674;49.722;10.892;2024-03-22T05:53:52;19.23;;;8.27;;
5303;SDS011;2674;49.722;10.892;2024-03-22T05:56:17;14.73;;;8.07;;
5303;SDS011;2674;49.722;10.892;2024-03-22T05:58:43;13.43;;;8.30;;
5303;SDS011;2674;49.722;10.892;2024-03-22T06:01:09;13.70;;;8.97;;
5303;SDS011;2674;49.722;10.892;2024-03-22T06:03:35;17.00;;;10.30;;
5303;SDS011;2674;49.722;10.892;2024-03-22T06:06:01;12.10;;;8.60;;
5303;SDS011;2674;49.722;10.892;2024-03-22T06:08:27;17.77;;;9.60;;
5303;SDS011;2674;49.722;10.892;2024-03-22T06:10:54;17.87;;;9.90;;
5303;SDS011;2674;49.722;10.892;2024-03-22T06:13:23;14.00;;;9.83;;
5303;SDS011;2674;49.722;10.892;2024-03-22T06:15:49;17.97;;;10.70;;
5303;SDS011;2674;49.722;10.892;2024-03-22T06:18:15;18.80;;;10.53;;
5303;SDS011;2674;49.722;10.892;2024-03-22T06:20:41;20.80;;;11.10;;
5303;SDS011;2674;49.722;10.892;2024-03-22T06:23:07;20.03;;;10.70;;
5303;SDS011;2674;49.722;10.892;2024-03-22T06:25:33;17.57;;;10.67;;
5303;SDS011;2674;49.722;10.892;2024-03-22T06:27:59;25.90;;;12.30;;
5303;SDS011;2674;49.722;10.892;2024-03-22T06:30:25;23.13;;;12.87;;
5303;SDS011;2674;49.722;10.892;2024-03-22T06:32:52;21.03;;;12.10;;
5303;SDS011;2674;49.722;10.892;2024-03-22T06:35:18;24.47;;;12.97;;
5303;SDS011;2674;49.722;10.892;2024-03-22T06:37:44;25.00;;;13.63;;
5303;SDS011;2674;49.722;10.892;2024-03-22T06:40:10;27.20;;;14.20;;
5303;SDS011;2674;49.722;10.892;2024-03-22T06:42:36;26.20;;;14.33;;
5303;SDS011;2674;49.722;10.892;2024-03-22T06:45:02;23.30;;;13.60;;
5303;SDS011;2674;49.722;10.892;2024-03-22T06:47:28;26.73;;;13.37;;
5303;SDS011;2674;49.722;10.892;2024-03-22T06:49:57;27.83;;;14.20;;
5303;SDS011;2674;49.722;10.892;2024-03-22T06:52:23;22.23;;;13.30;;
5303;SDS011;2674;49.722;10.892;2024-03-22T06:54:49;27.10;;;14.80;;
5303;SDS011;2674;49.722;10.892;2024-03-22T06:57:15;21.60;;;12.83;;
5303;SDS011;2674;49.722;10.892;2024-03-22T06:59:41;28.90;;;13.47;;
5303;SDS011;2674;49.722;10.892;2024-03-22T07:02:07;28.60;;;15.00;;
5303;SDS011;2674;49.722;10.892;2024-03-22T07:04:34;25.87;;;13.93;;
5303;SDS011;2674;49.722;10.892;2024-03-22T07:07:00;25.30;;;14.10;;
5303;SDS011;2674;49.722;10.892;2024-03-22T07:09:26;19.40;;;11.40;;
5303;SDS011;2674;49.722;10.892;2024-03-22T07:11:54;22.93;;;13.03;;
5303;SDS011;2674;49.722;10.892;2024-03-22T07:14:20;25.00;;;12.93;;
5303;SDS011;2674;49.722;10.892;2024-03-22T07:16:49;25.37;;;14.53;;
5303;SDS011;2674;49.722;10.892;2024-03-22T07:19:15;20.60;;;13.30;;
5303;SDS011;2674;49.722;10.892;2024-03-22T07:21:41;23.87;;;14.57;;
5303;SDS011;2674;49.722;10.892;2024-03-22T07:24:07;26.97;;;14.43;;
5303;SDS011;2674;49.722;10.892;2024-03-22T07:26:32;23.07;;;13.80;;
5303;SDS011;2674;49.722;10.892;2024-03-22T07:28:58;33.10;;;16.90;;
5303;SDS011;2674;49.722;10.892;2024-03-22T07:31:24;30.70;;;17.60;;
5303;SDS011;2674;49.722;10.892;2024-03-22T07:33:50;33.80;;;17.00;;
5303;SDS011;2674;49.722;10.892;2024-03-22T07:36:18;32.60;;;17.87;;
5303;SDS011;2674;49.722;10.892;2024-03-22T07:38:44;33.20;;;16.23;;
5303;SDS011;2674;49.722;10.892;2024-03-22T07:41:10;32.93;;;18.00;;
5303;SDS011;2674;49.722;10.892;2024-03-22T07:43:36;26.47;;;16.07;;
5303;SDS011;2674;49.722;10.892;2024-03-22T07:46:02;27.13;;;15.30;;
5303;SDS011;2674;49.722;10.892;2024-03-22T07:48:27;26.53;;;15.60;;
5303;SDS011;2674;49.722;10.892;2024-03-22T07:51:00;27.80;;;15.23;;
5303;SDS011;2674;49.722;10.892;2024-03-22T07:53:26;25.60;;;15.10;;
5303;SDS011;2674;49.722;10.892;2024-03-22T07:55:52;28.27;;;15.50;;
5303;SDS011;2674;49.722;10.892;2024-03-22T07:58:17;30.67;;;15.27;;
5303;SDS011;2674;49.722;10.892;2024-03-22T08:00:44;30.10;;;15.93;;
5303;SDS011;2674;49.722;10.892;2024-03-22T08:03:19;22.90;;;13.57;;
5303;SDS011;2674;49.722;10.892;2024-03-22T08:05:44;24.97;;;15.00;;
5303;SDS011;2674;49.722;10.892;2024-03-22T08:08:10;27.63;;;14.93;;
5303;SDS011;2674;49.722;10.892;2024-03-22T08:10:36;29.10;;;15.50;;
5303;SDS011;2674;49.722;10.892;2024-03-22T08:13:02;26.77;;;15.10;;
5303;SDS011;2674;49.722;10.892;2024-03-22T08:15:29;33.80;;;14.83;;
5303;SDS011;2674;49.722;10.892;2024-03-22T08:17:55;23.90;;;13.80;;
5303;SDS011;2674;49.722;10.892;2024-03-22T08:20:23;22.90;;;13.60;;
5303;SDS011;2674;49.722;10.892;2024-03-22T08:22:49;23.80;;;14.07;;
5303;SDS011;2674;49.722;10.892;2024-03-22T08:25:14;21.60;;;12.30;;
5303;SDS011;2674;49.722;10.892;2024-03-22T08:27:43;25.57;;;13.60;;
5303;SDS011;2674;49.722;10.892;2024-03-22T08:30:09;22.50;;;13.63;;
5303;SDS011;2674;49.722;10.892;2024-03-22T08:32:36;20.20;;;12.97;;
5303;SDS011;2674;49.722;10.892;2024-03-22T08:35:02;24.63;;;13.90;;
5303;SDS011;2674;49.722;10.892;2024-03-22T08:37:29;27.53;;;14.67;;
5303;SDS011;2674;49.722;10.892;2024-03-22T08:39:56;26.03;;;13.67;;
5303;SDS011;2674;49.722;10.892;2024-03-22T08:42:22;22.33;;;13.53;;
5303;SDS011;2674;49.722;10.892;2024-03-22T08:44:47;27.67;;;15.27;;
5303;SDS011;2674;49.722;10.892;2024-03-22T08:47:14;24.00;;;14.57;;
5303;SDS011;2674;49.722;10.892;2024-03-22T08:49:39;23.53;;;13.77;;
5303;SDS011;2674;49.722;10.892;2024-03-22T08:52:06;20.07;;;13.40;;
5303;SDS011;2674;49.722;10.892;2024-03-22T08:54:32;25.30;;;14.03;;
5303;SDS011;2674;49.722;10.892;2024-03-22T08:56:59;23.77;;;12.93;;
5303;SDS011;2674;49.722;10.892;2024-03-22T08:59:25;29.23;;;12.90;;
5303;SDS011;2674;49.722;10.892;2024-03-22T09:01:51;22.67;;;13.97;;
5303;SDS011;2674;49.722;10.892;2024-03-22T09:04:17;26.13;;;13.43;;
5303;SDS011;2674;49.722;10.892;2024-03-22T09:06:43;25.63;;;14.57;;
5303;SDS011;2674;49.722;10.892;2024-03-22T09:09:10;23.33;;;13.80;;
5303;SDS011;2674;49.722;10.892;2024-03-22T09:11:36;30.20;;;14.33;;
5303;SDS011;2674;49.722;10.892;2024-03-22T09:14:02;26.63;;;13.43;;
5303;SDS011;2674;49.722;10.892;2024-03-22T09:16:28;26.57;;;14.60;;
5303;SDS011;2674;49.722;10.892;2024-03-22T09:18:53;26.27;;;13.40;;
5303;SDS011;2674;49.722;10.892;2024-03-22T09:21:19;24.87;;;13.07;;
5303;SDS011;2674;49.722;10.892;2024-03-22T09:23:45;26.23;;;13.80;;
5303;SDS011;2674;49.722;10.892;2024-03-22T09:26:11;23.47;;;13.70;;
5303;SDS011;2674;49.722;10.892;2024-03-22T09:28:37;24.77;;;13.90;;
5303;SDS011;2674;49.722;10.892;2024-03-22T09:31:06;19.57;;;11.23;;
5303;SDS011;2674;49.722;10.892;2024-03-22T09:33:33;22.60;;;12.73;;
5303;SDS011;2674;49.722;10.892;2024-03-22T09:35:59;23.70;;;11.90;;
5303;SDS011;2674;49.722;10.892;2024-03-22T09:38:25;22.83;;;12.70;;
5303;SDS011;2674;49.722;10.892;2024-03-22T09:40:50;19.67;;;11.37;;
5303;SDS011;2674;49.722;10.892;2024-03-22T09:43:19;21.10;;;13.10;;
5303;SDS011;2674;49.722;10.892;2024-03-22T09:45:46;25.70;;;14.00;;
5303;SDS011;2674;49.722;10.892;2024-03-22T09:48:14;19.50;;;12.53;;
5303;SDS011;2674;49.722;10.892;2024-03-22T09:50:42;22.70;;;12.00;;
5303;SDS011;2674;49.722;10.892;2024-03-22T09:53:09;23.17;;;12.90;;
5303;SDS011;2674;49.722;10.892;2024-03-22T09:55:35;22.57;;;13.80;;
5303;SDS011;2674;49.722;10.892;2024-03-22T09:58:02;20.47;;;12.00;;
5303;SDS011;2674;49.722;10.892;2024-03-22T10:00:29;19.50;;;12.00;;
5303;SDS011;2674;49.722;10.892;2024-03-22T10:02:56;20.70;;;12.73;;
5303;SDS011;2674;49.722;10.892;2024-03-22T10:05:23;20.00;;;13.47;;
5303;SDS011;2674;49.722;10.892;2024-03-22T10:07:49;20.20;;;11.50;;
5303;SDS011;2674;49.722;10.892;2024-03-22T10:10:16;20.87;;;11.30;;
5303;SDS011;2674;49.722;10.892;2024-03-22T10:12:42;19.23;;;11.97;;
5303;SDS011;2674;49.722;10.892;2024-03-22T10:15:07;18.03;;;11.80;;
5303;SDS011;2674;49.722;10.892;2024-03-22T10:17:34;23.83;;;12.90;;
5303;SDS011;2674;49.722;10.892;2024-03-22T10:20:01;19.53;;;12.20;;
5303;SDS011;2674;49.722;10.892;2024-03-22T10:22:27;19.80;;;11.57;;
5303;SDS011;2674;49.722;10.892;2024-03-22T10:24:53;24.97;;;12.63;;
5303;SDS011;2674;49.722;10.892;2024-03-22T10:27:19;18.57;;;10.93;;
5303;SDS011;2674;49.722;10.892;2024-03-22T10:29:45;16.47;;;11.03;;
5303;SDS011;2674;49.722;10.892;2024-03-22T10:32:12;15.57;;;10.00;;
5303;SDS011;2674;49.722;10.892;2024-03-22T10:34:39;13.10;;;9.23;;
5303;SDS011;2674;49.722;10.892;2024-03-22T10:37:07;16.17;;;8.40;;
5303;SDS011;2674;49.722;10.892;2024-03-22T10:39:35;11.97;;;8.37;;
5303;SDS011;2674;49.722;10.892;2024-03-22T10:42:02;12.97;;;8.37;;
5303;SDS011;2674;49.722;10.892;2024-03-22T10:44:28;13.70;;;8.47;;
5303;SDS011;2674;49.722;10.892;2024-03-22T10:46:54;9.10;;;7.57;;
5303;SDS011;2674;49.722;10.892;2024-03-22T10:49:24;10.87;;;7.33;;
5303;SDS011;2674;49.722;10.892;2024-03-22T10:51:58;10.60;;;7.70;;
5303;SDS011;2674;49.722;10.892;2024-03-22T10:54:28;10.40;;;7.20;;
5303;SDS011;2674;49.722;10.892;2024-03-22T10:56:58;11.57;;;6.70;;
5303;SDS011;2674;49.722;10.892;2024-03-22T10:59:25;8.70;;;6.90;;
5303;SDS011;2674;49.722;10.892;2024-03-22T11:01:51;8.73;;;6.30;;
5303;SDS011;2674;49.722;10.892;2024-03-22T11:04:17;12.20;;;6.23;;
5303;SDS011;2674;49.722;10.892;2024-03-22T11:06:48;9.73;;;6.67;;
5303;SDS011;2674;49.722;10.892;2024-03-22T11:09:25;10.93;;;6.30;;
5303;SDS011;2674;49.722;10.892;2024-03-22T11:11:51;11.30;;;6.40;;
5303;SDS011;2674;49.722;10.892;2024-03-22T11:14:18;10.93;;;6.97;;
5303;SDS011;2674;49.722;10.892;2024-03-22T11:16:45;14.10;;;6.00;;
5303;SDS011;2674;49.722;10.892;2024-03-22T11:19:14;7.07;;;4.50;;
5303;SDS011;2674;49.722;10.892;2024-03-22T11:21:39;8.80;;;6.07;;
5303;SDS011;2674;49.722;10.892;2024-03-22T11:24:05;9.00;;;5.87;;
5303;SDS011;2674;49.722;10.892;2024-03-22T11:26:34;7.37;;;5.23;;
5303;SDS011;2674;49.722;10.892;2024-03-22T11:29:00;8.47;;;4.73;;
5303;SDS011;2674;49.722;10.892;2024-03-22T11:31:26;6.67;;;4.90;;
5303;SDS011;2674;49.722;10.892;2024-03-22T11:33:56;9.13;;;4.73;;
5303;SDS011;2674;49.722;10.892;2024-03-22T11:36:22;6.27;;;3.83;;
5303;SDS011;2674;49.722;10.892;2024-03-22T11:38:48;5.77;;;4.13;;
5303;SDS011;2674;49.722;10.892;2024-03-22T11:41:21;6.07;;;4.90;;
5303;SDS011;2674;49.722;10.892;2024-03-22T11:43:54;6.90;;;5.30;;
5303;SDS011;2674;49.722;10.892;2024-03-22T11:46:20;7.27;;;4.70;;
5303;SDS011;2674;49.722;10.892;2024-03-22T11:48:50;4.80;;;4.33;;
5303;SDS011;2674;49.722;10.892;2024-03-22T11:51:19;8.13;;;4.20;;
5303;SDS011;2674;49.722;10.892;2024-03-22T11:53:49;2.57;;;2.40;;
5303;SDS011;2674;49.722;10.892;2024-03-22T11:56:19;1.90;;;1.70;;
5303;SDS011;2674;49.722;10.892;2024-03-22T11:58:49;4.40;;;1.23;;
5303;SDS011;2674;49.722;10.892;2024-03-22T12:01:22;2.40;;;1.37;;
5303;SDS011;2674;49.722;10.892;2024-03-22T12:03:48;3.37;;;1.83;;
5303;SDS011;2674;49.722;10.892;2024-03-22T12:06:14;2.77;;;1.30;;
5303;SDS011;2674;49.722;10.892;2024-03-22T12:08:41;2.50;;;1.43;;
5303;SDS011;2674;49.722;10.892;2024-03-22T12:11:10;1.77;;;1.63;;
5303;SDS011;2674;49.722;10.892;2024-03-22T12:13:37;5.23;;;1.30;;
5303;SDS011;2674;49.722;10.892;2024-03-22T12:16:03;3.13;;;1.23;;
5303;SDS011;2674;49.722;10.892;2024-03-22T12:18:30;3.43;;;1.70;;
5303;SDS011;2674;49.722;10.892;2024-03-22T12:20:56;4.27;;;2.20;;
5303;SDS011;2674;49.722;10.892;2024-03-22T12:23:22;2.00;;;1.87;;
5303;SDS011;2674;49.722;10.892;2024-03-22T12:25:49;2.30;;;2.00;;
5303;SDS011;2674;49.722;10.892;2024-03-22T12:28:16;1.80;;;1.70;;
5303;SDS011;2674;49.722;10.892;2024-03-22T12:30:42;5.07;;;2.43;;
5303;SDS011;2674;49.722;10.892;2024-03-22T12:33:08;2.50;;;2.17;;
5303;SDS011;2674;49.722;10.892;2024-03-22T12:35:36;2.73;;;2.07;;
5303;SDS011;2674;49.722;10.892;2024-03-22T12:38:04;2.20;;;2.00;;
5303;SDS011;2674;49.722;10.892;2024-03-22T12:40:30;3.07;;;1.90;;
5303;SDS011;2674;49.722;10.892;2024-03-22T12:42:58;2.07;;;1.60;;
5303;SDS011;2674;49.722;10.892;2024-03-22T12:45:24;3.17;;;1.93;;
5303;SDS011;2674;49.722;10.892;2024-03-22T12:47:49;2.07;;;1.90;;
5303;SDS011;2674;49.722;10.892;2024-03-22T12:50:15;5.60;;;2.57;;
5303;SDS011;2674;49.722;10.892;2024-03-22T12:52:41;3.23;;;2.20;;
5303;SDS011;2674;49.722;10.892;2024-03-22T12:55:09;2.20;;;2.07;;
5303;SDS011;2674;49.722;10.892;2024-03-22T12:57:35;2.30;;;2.10;;
5303;SDS011;2674;49.722;10.892;2024-03-22T13:00:01;3.40;;;2.77;;
5303;SDS011;2674;49.722;10.892;2024-03-22T13:02:30;2.90;;;2.70;;
5303;SDS011;2674;49.722;10.892;2024-03-22T13:04:57;3.20;;;2.80;;
5303;SDS011;2674;49.722;10.892;2024-03-22T13:07:24;2.37;;;2.17;;
5303;SDS011;2674;49.722;10.892;2024-03-22T13:09:50;3.50;;;3.17;;
5303;SDS011;2674;49.722;10.892;2024-03-22T13:12:16;5.97;;;2.73;;
5303;SDS011;2674;49.722;10.892;2024-03-22T13:14:43;3.10;;;2.40;;
5303;SDS011;2674;49.722;10.892;2024-03-22T13:17:09;3.80;;;2.90;;
5303;SDS011;2674;49.722;10.892;2024-03-22T13:19:35;4.33;;;2.90;;
5303;SDS011;2674;49.722;10.892;2024-03-22T13:22:00;4.07;;;3.67;;
5303;SDS011;2674;49.722;10.892;2024-03-22T13:24:26;4.40;;;3.20;;
5303;SDS011;2674;49.722;10.892;2024-03-22T13:26:52;5.83;;;2.60;;
5303;SDS011;2674;49.722;10.892;2024-03-22T13:29:18;3.60;;;2.80;;
5303;SDS011;2674;49.722;10.892;2024-03-22T13:31:43;3.43;;;3.10;;
5303;SDS011;2674;49.722;10.892;2024-03-22T13:34:09;3.70;;;3.10;;
5303;SDS011;2674;49.722;10.892;2024-03-22T13:36:35;6.77;;;3.20;;
5303;SDS011;2674;49.722;10.892;2024-03-22T13:39:03;4.27;;;3.87;;
5303;SDS011;2674;49.722;10.892;2024-03-22T13:41:29;3.90;;;3.33;;
5303;SDS011;2674;49.722;10.892;2024-03-22T13:43:55;5.70;;;5.10;;
5303;SDS011;2674;49.722;10.892;2024-03-22T13:46:21;4.57;;;3.40;;
5303;SDS011;2674;49.722;10.892;2024-03-22T13:48:47;5.90;;;4.40;;
5303;SDS011;2674;49.722;10.892;2024-03-22T13:51:13;6.37;;;4.73;;
5303;SDS011;2674;49.722;10.892;2024-03-22T13:53:38;5.40;;;4.03;;
5303;SDS011;2674;49.722;10.892;2024-03-22T13:56:04;9.93;;;4.03;;
5303;SDS011;2674;49.722;10.892;2024-03-22T13:58:31;5.17;;;4.37;;
5303;SDS011;2674;49.722;10.892;2024-03-22T14:00:56;6.67;;;4.50;;
5303;SDS011;2674;49.722;10.892;2024-03-22T14:03:22;3.90;;;3.53;;
5303;SDS011;2674;49.722;10.892;2024-03-22T14:05:48;3.97;;;3.57;;
5303;SDS011;2674;49.722;10.892;2024-03-22T14:08:14;4.80;;;4.30;;
5303;SDS011;2674;49.722;10.892;2024-03-22T14:10:40;3.33;;;3.03;;
5303;SDS011;2674;49.722;10.892;2024-03-22T14:13:06;4.17;;;2.93;;
5303;SDS011;2674;49.722;10.892;2024-03-22T14:15:33;3.50;;;3.20;;
5303;SDS011;2674;49.722;10.892;2024-03-22T14:18:01;6.07;;;3.60;;
5303;SDS011;2674;49.722;10.892;2024-03-22T14:20:28;6.03;;;3.20;;
5303;SDS011;2674;49.722;10.892;2024-03-22T14:22:54;5.17;;;3.93;;
5303;SDS011;2674;49.722;10.892;2024-03-22T14:25:20;4.97;;;3.80;;
5303;SDS011;2674;49.722;10.892;2024-03-22T14:27:46;4.80;;;3.57;;
5303;SDS011;2674;49.722;10.892;2024-03-22T14:30:13;7.33;;;4.43;;
5303;SDS011;2674;49.722;10.892;2024-03-22T14:32:40;5.00;;;3.40;;
5303;SDS011;2674;49.722;10.892;2024-03-22T14:35:06;9.83;;;4.10;;
5303;SDS011;2674;49.722;10.892;2024-03-22T14:37:33;3.50;;;3.10;;
5303;SDS011;2674;49.722;10.892;2024-03-22T14:39:59;4.03;;;2.90;;
5303;SDS011;2674;49.722;10.892;2024-03-22T14:42:28;4.70;;;3.40;;